Flugplatz Dachau-Gröbenried

Für EDMD sind keine METAR/TAF Berichte vorhanden.
Es werden die Flugwettermeldungen vom Flugplatz Oberpfaffenhofen in 19 km Entfernung angezeigt.

Bericht für EDMO

vom 25.01. um 21:50 UTC

Wind 4 kt aus 220°

Sichtweite 10 km oder mehr

bedeckt in 17000 ft

Temperatur -1.0°C

Taupunkt -1.0°C

Luftfeuchtigkeit 100%

Luftdruck 1020 hPa

EDMO 252150Z AUTO 22004KT 9999 // OVC170/// M01/M01 Q1020
Keine Prognose (TAF) verfügbar.
Impressum